ENSB/LYR METAR and TAF weather

Enter ICAO airport designator
Station Type Date Time Source
ENSB METAR 2024/06/15 23:20 UTC NOAA

ENSB 152320Z 15012KT 9999 BKN028 05/M00 Q1017 RMK WIND 1400FT 13011KT


Station Type Date Time Source
ENSB Decoded METAR 2024/06/15 23:20 UTC NOAA

Svalbard Lufthavn, Norway (ENSB) 78-15N 015-28E 29M
Jun 15, 2024 - 07:20 PM EDT / 2024.06.15 2320 UTC
Wind: from the SSE (150 degrees) at 14 MPH (12 KT):0
Visibility: greater than 7 mile(s):0
Sky conditions: mostly cloudy
Temperature: 41 F (5 C)
Dew Point: 32 F (0 C)
Relative Humidity: 70%
Pressure (altimeter): 30.03 in. Hg (1017 hPa)
ob: ENSB 152320Z 15012KT 9999 BKN028 05/M00 Q1017 RMK WIND 1400FT 13011KT
cycle: 23

Station Type Date Time Source
ENSB TAF 2024/06/15 22:15 UTC NOAA